Seagoville's Hourly Summary for Wednesday, April 19, 2017
Hour Temp
(f)
RH
(%)
Solar Rad.
(MJ/m2)
Rainfall
(in)
Wind
(mph)
4/19/2017 12:00 AM 64 95 0 0 2.25
4/19/2017 1:00 AM 63 96 0 0 0.85
4/19/2017 2:00 AM 63 97 0 0 0.24
4/19/2017 3:00 AM 62 97 0 0 1.13
4/19/2017 4:00 AM 62 98 0 0 3.07
4/19/2017 5:00 AM 64 96 0 0 4.96
4/19/2017 6:00 AM 65 96 0 0 4.31
4/19/2017 7:00 AM 65 96 0.1 0 4.48
4/19/2017 8:00 AM 66 91 0.38 0 5.24
4/19/2017 9:00 AM 68 86 0.61 0 5.49
4/19/2017 10:00 AM 71 76 1.61 0 7.37
4/19/2017 11:00 AM 73 68 1.82 0 8.57
4/19/2017 12:00 PM 76 62 2.23 0 9.78
4/19/2017 1:00 PM 77 58 1.93 0 9.38
4/19/2017 2:00 PM 78 57 1.8 0 9.37
4/19/2017 3:00 PM 80 55 2.14 0 8.56
4/19/2017 4:00 PM 80 57 1.67 0 8.3
4/19/2017 5:00 PM 80 58 0.77 0 9.01
4/19/2017 6:00 PM 80 57 0.59 0 7.22
4/19/2017 7:00 PM 78 60 0.11 0 6.08
4/19/2017 8:00 PM 74 69 0 0 3.7
4/19/2017 9:00 PM 73 77 0 0 5.49
4/19/2017 10:00 PM 72 78 0 0 7.63
4/19/2017 11:00 PM 71 82 0 0 7.64
Data Summary 71 77 15.76 0.00 5.84